Time;durP1;ratioP1;P1;durP2;ratioP2;P2;SDS_P1;SDS_P2;PMS_P1;PMS_P2;Temp;Humidity;BMP_temperature;BMP_pressure;BME280_temperature;BME280_humidity;BME280_pressure;Samples;Min_cycle;Max_cycle;Signal;HPM_P1;HPM_P2
2022/03/09 00:00:23;;;;;;;100.05;62.30;;;;;;;;;;5124769;27;20024;-74
2022/03/09 00:02:50;;;;;;;97.30;63.60;;;;;;;;;;5124766;27;20011;-75
2022/03/09 00:05:16;;;;;;;98.07;65.95;;;;;;;;;;5126345;27;20043;-75
2022/03/09 00:07:42;;;;;;;92.13;59.75;;;;;;;;;;5114874;28;20474;-75
2022/03/09 00:10:09;;;;;;;94.88;61.25;;;;;;;;;;5133056;27;20054;-75
2022/03/09 00:12:36;;;;;;;102.93;65.85;;;;;;;;;;5121993;27;20050;-75
2022/03/09 00:15:02;;;;;;;100.78;66.57;;;;;;;;;;5118708;27;20394;-74
2022/03/09 00:17:29;;;;;;;98.28;66.38;;;;;;;;;;5128086;27;20055;-74
2022/03/09 00:19:55;;;;;;;91.93;61.88;;;;;;;;;;5122847;27;20020;-75
2022/03/09 00:22:21;;;;;;;111.10;66.68;;;;;;;;;;5132531;27;20015;-75
2022/03/09 00:24:48;;;;;;;108.00;67.00;;;;;;;;;;5133244;27;20091;-75
2022/03/09 00:27:14;;;;;;;102.10;66.47;;;;;;;;;;5126037;27;20124;-74
2022/03/09 00:29:40;;;;;;;101.40;64.45;;;;;;;;;;5124711;27;20038;-75
2022/03/09 00:32:07;;;;;;;100.32;63.95;;;;;;;;;;5131631;27;20034;-75
2022/03/09 00:34:33;;;;;;;101.65;62.35;;;;;;;;;;5135078;27;20376;-74
2022/03/09 00:37:00;;;;;;;102.88;64.97;;;;;;;;;;5132047;27;20019;-74
2022/03/09 00:39:27;;;;;;;106.80;66.28;;;;;;;;;;5101898;27;20454;-75
2022/03/09 00:41:53;;;;;;;104.05;66.30;;;;;;;;;;5133871;27;20068;-74
2022/03/09 00:44:19;;;;;;;95.40;63.20;;;;;;;;;;5122291;27;20022;-75
2022/03/09 00:46:45;;;;;;;99.65;64.75;;;;;;;;;;5126234;27;20373;-77
2022/03/09 00:49:12;;;;;;;96.78;61.83;;;;;;;;;;5144646;27;20026;-75
2022/03/09 00:51:38;;;;;;;97.30;65.45;;;;;;;;;;5135754;27;20517;-75
2022/03/09 00:54:04;;;;;;;93.60;61.83;;;;;;;;;;5135828;27;20051;-75
2022/03/09 00:56:31;;;;;;;87.95;59.05;;;;;;;;;;5134521;27;20058;-75
2022/03/09 00:58:57;;;;;;;86.90;58.55;;;;;;;;;;5134689;27;20023;-75
2022/03/09 01:01:23;;;;;;;95.05;61.33;;;;;;;;;;5136228;27;20476;-75
2022/03/09 01:03:49;;;;;;;89.00;58.15;;;;;;;;;;5135670;27;20039;-76
2022/03/09 01:06:16;;;;;;;94.22;59.63;;;;;;;;;;5136660;27;20019;-75
2022/03/09 01:08:42;;;;;;;98.03;60.95;;;;;;;;;;5129104;27;20497;-75
2022/03/09 01:11:09;;;;;;;87.90;55.65;;;;;;;;;;5131445;27;20137;-76
2022/03/09 01:13:36;;;;;;;86.55;56.17;;;;;;;;;;5128482;27;20031;-75
2022/03/09 01:16:02;;;;;;;85.85;55.45;;;;;;;;;;5119949;28;20039;-76
2022/03/09 01:18:29;;;;;;;90.15;57.80;;;;;;;;;;5120204;27;20512;-75
2022/03/09 01:20:55;;;;;;;82.25;56.08;;;;;;;;;;5123767;27;20032;-75
2022/03/09 01:23:21;;;;;;;95.25;55.97;;;;;;;;;;5134585;28;20020;-74
2022/03/09 01:25:47;;;;;;;94.32;59.35;;;;;;;;;;5134775;27;20032;-74
2022/03/09 01:28:14;;;;;;;95.18;58.42;;;;;;;;;;5116647;27;20156;-76
2022/03/09 01:30:40;;;;;;;100.88;63.78;;;;;;;;;;5123132;27;20023;-76
2022/03/09 01:33:06;;;;;;;110.10;64.75;;;;;;;;;;5137325;27;20084;-76
2022/03/09 01:35:33;;;;;;;109.93;66.45;;;;;;;;;;5118920;27;20036;-75
2022/03/09 01:37:59;;;;;;;112.53;68.25;;;;;;;;;;5135455;27;20015;-76
2022/03/09 01:40:25;;;;;;;111.47;68.38;;;;;;;;;;5121074;28;20036;-76
2022/03/09 01:42:52;;;;;;;110.80;68.35;;;;;;;;;;5123121;28;20527;-76
2022/03/09 01:45:20;;;;;;;123.32;75.75;;;;;;;;;;5123724;27;20034;-76
2022/03/09 01:47:47;;;;;;;123.88;75.28;;;;;;;;;;5132939;27;20381;-75
2022/03/09 01:50:14;;;;;;;124.03;76.00;;;;;;;;;;5148657;27;20023;-76
2022/03/09 01:52:41;;;;;;;133.35;77.45;;;;;;;;;;5128426;27;20054;-74
2022/03/09 01:55:07;;;;;;;134.93;80.80;;;;;;;;;;5114597;28;20031;-75
2022/03/09 01:57:33;;;;;;;138.20;83.88;;;;;;;;;;5121373;28;20035;-75
2022/03/09 02:00:00;;;;;;;144.13;88.22;;;;;;;;;;5143377;27;20023;-74
2022/03/09 02:02:27;;;;;;;148.55;92.43;;;;;;;;;;5127790;27;20099;-75
2022/03/09 02:04:53;;;;;;;150.32;94.85;;;;;;;;;;5123227;27;20057;-75
2022/03/09 02:09:41;;;;;;;174.80;104.18;;;;;;;;;;5120409;28;20062;-77
2022/03/09 02:10:07;;;;;;;198.85;113.32;;;;;;;;;;5121381;28;20043;-75
2022/03/09 02:12:33;;;;;;;203.73;109.45;;;;;;;;;;5122139;27;20036;-76
2022/03/09 02:15:01;;;;;;;206.15;112.18;;;;;;;;;;5117880;28;20038;-75
2022/03/09 02:17:28;;;;;;;205.60;111.80;;;;;;;;;;5124678;28;20114;-76
2022/03/09 02:19:54;;;;;;;224.00;111.30;;;;;;;;;;5123906;28;20072;-76
2022/03/09 02:22:21;;;;;;;223.02;112.43;;;;;;;;;;5127142;28;20040;-76
2022/03/09 02:24:48;;;;;;;221.18;112.80;;;;;;;;;;5118162;28;20091;-75
2022/03/09 02:27:14;;;;;;;227.35;112.93;;;;;;;;;;5124371;28;20031;-77
2022/03/09 02:29:41;;;;;;;245.00;117.28;;;;;;;;;;5105353;28;20342;-76
2022/03/09 02:32:08;;;;;;;249.00;114.25;;;;;;;;;;5126531;27;20047;-74
2022/03/09 02:34:34;;;;;;;233.27;110.35;;;;;;;;;;5128682;27;20027;-75
2022/03/09 02:37:01;;;;;;;241.10;115.90;;;;;;;;;;5124996;27;20034;-76
2022/03/09 02:39:27;;;;;;;246.77;115.65;;;;;;;;;;5112418;27;20481;-76
2022/03/09 02:41:56;;;;;;;226.52;110.22;;;;;;;;;;5090701;27;21253;-76
2022/03/09 02:44:23;;;;;;;226.77;113.68;;;;;;;;;;5118940;27;20063;-75
2022/03/09 02:46:49;;;;;;;239.25;107.57;;;;;;;;;;5103108;27;20038;-75
2022/03/09 02:49:15;;;;;;;232.45;109.80;;;;;;;;;;5116287;27;20031;-75
2022/03/09 02:51:42;;;;;;;216.23;104.43;;;;;;;;;;5123331;27;20461;-75
2022/03/09 02:54:08;;;;;;;210.05;105.05;;;;;;;;;;5116983;27;20035;-76
2022/03/09 02:56:34;;;;;;;211.88;105.93;;;;;;;;;;5112762;27;20055;-75
2022/03/09 02:59:01;;;;;;;221.00;102.55;;;;;;;;;;5098584;27;20092;-77
2022/03/09 03:01:27;;;;;;;212.88;104.45;;;;;;;;;;5117380;27;20035;-75
2022/03/09 03:03:53;;;;;;;203.57;100.88;;;;;;;;;;5115717;27;20047;-76
2022/03/09 03:06:20;;;;;;;203.65;101.63;;;;;;;;;;5112802;27;20040;-75
2022/03/09 03:08:46;;;;;;;205.48;100.75;;;;;;;;;;5117310;27;20027;-75
2022/03/09 03:11:12;;;;;;;212.52;102.20;;;;;;;;;;5111517;27;20556;-76
2022/03/09 03:13:39;;;;;;;210.02;101.53;;;;;;;;;;5117156;27;20027;-75
2022/03/09 03:16:06;;;;;;;207.40;100.65;;;;;;;;;;5119947;27;20043;-76
2022/03/09 03:18:32;;;;;;;203.48;97.93;;;;;;;;;;5118911;27;20084;-76
2022/03/09 03:20:59;;;;;;;188.35;96.80;;;;;;;;;;5116283;27;20055;-75
2022/03/09 03:23:29;;;;;;;188.98;98.07;;;;;;;;;;5121796;27;20070;-75
2022/03/09 03:25:56;;;;;;;201.07;98.32;;;;;;;;;;5120999;27;20122;-74
2022/03/09 03:28:23;;;;;;;194.07;96.82;;;;;;;;;;5112869;27;20024;-74
2022/03/09 03:30:50;;;;;;;208.45;99.72;;;;;;;;;;5117991;27;20031;-75
2022/03/09 03:33:20;;;;;;;192.68;93.60;;;;;;;;;;5111953;27;20028;-76
2022/03/09 03:35:48;;;;;;;170.70;90.25;;;;;;;;;;5116819;27;20051;-74
2022/03/09 03:38:14;;;;;;;197.50;98.15;;;;;;;;;;5116206;27;20479;-75
2022/03/09 03:40:41;;;;;;;174.10;90.85;;;;;;;;;;5118836;27;20023;-75
2022/03/09 03:43:07;;;;;;;200.13;97.45;;;;;;;;;;5110407;27;20031;-76
2022/03/09 03:45:34;;;;;;;192.27;95.70;;;;;;;;;;5120146;27;20031;-77
2022/03/09 03:48:00;;;;;;;186.15;94.85;;;;;;;;;;5118202;27;20028;-76
2022/03/09 03:50:27;;;;;;;205.10;97.72;;;;;;;;;;5117866;27;20489;-75
2022/03/09 03:52:53;;;;;;;184.43;92.38;;;;;;;;;;5119978;27;20031;-77
2022/03/09 03:55:20;;;;;;;187.75;95.13;;;;;;;;;;5124288;27;20496;-75
2022/03/09 03:57:46;;;;;;;180.07;94.00;;;;;;;;;;5115927;27;20024;-77
2022/03/09 04:00:13;;;;;;;201.82;97.53;;;;;;;;;;5119089;27;20038;-74
2022/03/09 04:02:39;;;;;;;185.50;92.25;;;;;;;;;;5121114;27;20479;-75
2022/03/09 04:05:06;;;;;;;180.30;95.60;;;;;;;;;;5115526;27;20051;-75
2022/03/09 04:07:32;;;;;;;189.73;98.38;;;;;;;;;;5119008;27;20499;-75
2022/03/09 04:09:59;;;;;;;183.95;93.97;;;;;;;;;;5118963;27;20023;-76
2022/03/09 04:12:25;;;;;;;189.25;94.80;;;;;;;;;;5114500;27;20027;-76
2022/03/09 04:14:53;;;;;;;179.43;92.75;;;;;;;;;;5122317;27;20469;-75
2022/03/09 04:17:19;;;;;;;201.65;96.97;;;;;;;;;;5123496;27;20290;-76
2022/03/09 04:19:46;;;;;;;193.93;100.18;;;;;;;;;;5119302;27;20456;-75
2022/03/09 04:22:12;;;;;;;203.50;104.25;;;;;;;;;;5116844;27;20102;-75
2022/03/09 04:24:38;;;;;;;203.80;99.43;;;;;;;;;;5120978;27;20071;-75
2022/03/09 04:27:06;;;;;;;198.18;97.85;;;;;;;;;;5121113;27;20035;-75
2022/03/09 04:29:33;;;;;;;205.60;101.57;;;;;;;;;;5118794;27;20031;-75
2022/03/09 04:31:59;;;;;;;200.40;101.88;;;;;;;;;;5118820;27;20031;-76
2022/03/09 04:34:25;;;;;;;206.30;103.35;;;;;;;;;;5123568;27;20039;-75
2022/03/09 04:36:52;;;;;;;210.23;104.57;;;;;;;;;;5118147;27;20023;-75
2022/03/09 05:21:51;;;;;;;187.70;98.47;;;;;;;;;;5098836;28;20541;-76
2022/03/09 05:24:17;;;;;;;170.48;93.32;;;;;;;;;;5096454;28;20084;-75
2022/03/09 05:26:46;;;;;;;162.35;87.22;;;;;;;;;;5099266;28;20069;-77
2022/03/09 05:29:13;;;;;;;151.82;86.93;;;;;;;;;;5096418;28;20057;-75
2022/03/09 05:31:39;;;;;;;154.10;86.03;;;;;;;;;;5099828;28;20086;-74
2022/03/09 05:34:06;;;;;;;156.10;86.60;;;;;;;;;;5102563;28;20065;-77
2022/03/09 05:36:55;;;;;;;153.02;83.90;;;;;;;;;;5102393;28;20142;-75
2022/03/09 05:39:22;;;;;;;162.25;87.63;;;;;;;;;;5102290;28;20039;-77
2022/03/09 05:41:48;;;;;;;152.80;88.75;;;;;;;;;;5101691;28;20091;-76
2022/03/09 05:44:15;;;;;;;153.75;87.65;;;;;;;;;;5101637;28;20043;-78
2022/03/09 05:46:41;;;;;;;159.05;86.88;;;;;;;;;;5101163;28;20165;-76
2022/03/09 05:49:07;;;;;;;147.98;81.60;;;;;;;;;;5103147;28;20034;-77
2022/03/09 05:51:34;;;;;;;164.82;93.75;;;;;;;;;;5105789;28;20032;-77
2022/03/09 05:54:00;;;;;;;173.48;91.93;;;;;;;;;;5108869;28;20069;-76
2022/03/09 05:56:26;;;;;;;172.85;94.25;;;;;;;;;;5101435;28;20034;-76
2022/03/09 05:58:53;;;;;;;162.98;91.35;;;;;;;;;;5100538;28;20032;-77
2022/03/09 06:01:21;;;;;;;148.60;88.43;;;;;;;;;;5100216;28;20051;-76
2022/03/09 06:03:47;;;;;;;157.13;87.80;;;;;;;;;;5101943;28;20011;-78
2022/03/09 06:06:13;;;;;;;159.60;87.30;;;;;;;;;;5103557;28;20050;-74
2022/03/09 06:08:40;;;;;;;164.63;91.18;;;;;;;;;;5095988;28;20043;-78
2022/03/09 06:11:06;;;;;;;154.00;92.22;;;;;;;;;;5097943;28;20020;-76
2022/03/09 06:13:33;;;;;;;151.60;86.93;;;;;;;;;;5109321;27;20070;-76
2022/03/09 06:15:59;;;;;;;156.75;90.97;;;;;;;;;;5123288;27;20066;-76
2022/03/09 06:18:25;;;;;;;158.50;92.63;;;;;;;;;;5125614;27;20077;-76
2022/03/09 06:20:51;;;;;;;155.35;87.97;;;;;;;;;;5126020;27;20024;-76
2022/03/09 06:23:18;;;;;;;148.50;86.57;;;;;;;;;;5118127;27;20068;-79
2022/03/09 06:25:45;;;;;;;149.20;85.18;;;;;;;;;;5121024;27;20142;-78
2022/03/09 06:28:11;;;;;;;140.15;84.63;;;;;;;;;;5124020;27;20050;-76
2022/03/09 06:30:38;;;;;;;142.45;81.10;;;;;;;;;;5120634;27;20062;-75
2022/03/09 06:33:04;;;;;;;136.25;79.07;;;;;;;;;;5116794;27;20062;-78
2022/03/09 06:35:30;;;;;;;138.35;79.70;;;;;;;;;;5123869;27;20035;-77
2022/03/09 06:37:56;;;;;;;139.73;81.68;;;;;;;;;;5123925;27;20038;-78
2022/03/09 06:40:23;;;;;;;136.00;80.20;;;;;;;;;;5131826;27;20028;-77
2022/03/09 06:42:49;;;;;;;133.65;78.15;;;;;;;;;;5124912;27;20588;-78
2022/03/09 06:45:16;;;;;;;141.32;79.07;;;;;;;;;;5124459;27;20019;-77
2022/03/09 06:47:42;;;;;;;136.98;80.30;;;;;;;;;;5127327;27;20023;-77
2022/03/09 06:50:09;;;;;;;131.40;77.07;;;;;;;;;;5103049;27;20031;-77
2022/03/09 06:52:35;;;;;;;133.63;78.32;;;;;;;;;;5119242;27;20027;-78
2022/03/09 06:55:03;;;;;;;121.32;73.47;;;;;;;;;;5128712;27;20357;-76
2022/03/09 06:57:33;;;;;;;124.95;78.15;;;;;;;;;;5124591;27;20060;-76
2022/03/09 07:00:00;;;;;;;127.95;76.32;;;;;;;;;;5124183;27;22693;-77
2022/03/09 07:02:26;;;;;;;119.35;74.03;;;;;;;;;;5124072;27;20407;-78
2022/03/09 07:04:53;;;;;;;123.43;77.18;;;;;;;;;;5126852;27;20032;-77
2022/03/09 07:07:19;;;;;;;124.70;76.18;;;;;;;;;;5116019;27;20620;-77
2022/03/09 07:09:46;;;;;;;135.18;77.07;;;;;;;;;;5119493;27;20062;-79
2022/03/09 07:12:12;;;;;;;128.40;75.38;;;;;;;;;;5121002;27;20031;-76
2022/03/09 07:14:38;;;;;;;114.43;73.00;;;;;;;;;;5122622;27;20037;-77
2022/03/09 07:17:04;;;;;;;119.57;71.45;;;;;;;;;;5118934;27;20031;-76
2022/03/09 07:19:31;;;;;;;121.85;71.00;;;;;;;;;;5117579;27;20418;-77
2022/03/09 07:21:57;;;;;;;111.53;68.90;;;;;;;;;;5119668;27;20027;-76
2022/03/09 07:24:23;;;;;;;104.13;65.35;;;;;;;;;;5123929;27;20370;-76
2022/03/09 07:26:50;;;;;;;96.82;61.15;;;;;;;;;;5124604;27;20023;-77
2022/03/09 07:29:17;;;;;;;103.30;63.80;;;;;;;;;;5103823;27;20031;-76
2022/03/09 07:31:43;;;;;;;98.63;63.83;;;;;;;;;;5119052;27;21656;-77
2022/03/09 07:34:09;;;;;;;90.07;58.55;;;;;;;;;;5125957;27;20022;-77
2022/03/09 07:36:36;;;;;;;98.43;58.22;;;;;;;;;;5119602;27;20139;-76
2022/03/09 07:39:02;;;;;;;93.30;60.40;;;;;;;;;;5102280;27;20051;-77
2022/03/09 07:41:29;;;;;;;84.57;54.53;;;;;;;;;;5117822;27;20015;-76
2022/03/09 07:43:55;;;;;;;83.13;55.25;;;;;;;;;;5121592;27;20471;-76
2022/03/09 07:46:21;;;;;;;85.78;54.10;;;;;;;;;;5123275;27;20038;-77
2022/03/09 07:48:48;;;;;;;76.75;52.97;;;;;;;;;;5125522;27;20484;-77
2022/03/09 07:51:14;;;;;;;77.78;51.92;;;;;;;;;;5121646;27;20072;-77
2022/03/09 07:53:42;;;;;;;75.07;52.17;;;;;;;;;;5124454;27;20019;-75
2022/03/09 07:56:13;;;;;;;70.72;44.85;;;;;;;;;;5128604;27;20023;-76
2022/03/09 07:58:39;;;;;;;68.28;46.80;;;;;;;;;;5128118;27;20019;-75
2022/03/09 08:01:06;;;;;;;64.93;44.63;;;;;;;;;;5126881;27;20026;-75
2022/03/09 08:03:32;;;;;;;66.43;45.85;;;;;;;;;;5125785;27;20019;-75
2022/03/09 08:05:59;;;;;;;59.83;43.35;;;;;;;;;;5120031;27;20031;-77
2022/03/09 08:08:25;;;;;;;64.05;43.55;;;;;;;;;;5127889;27;20030;-75
2022/03/09 08:10:52;;;;;;;61.38;46.65;;;;;;;;;;5126564;27;20059;-77
2022/03/09 08:13:18;;;;;;;65.75;48.38;;;;;;;;;;5122298;27;20042;-76
2022/03/09 08:15:44;;;;;;;66.85;48.28;;;;;;;;;;5121882;27;20069;-76
2022/03/09 08:18:11;;;;;;;70.65;49.03;;;;;;;;;;5119042;27;20050;-77
2022/03/09 08:20:37;;;;;;;66.95;50.65;;;;;;;;;;5115112;27;20070;-76
2022/03/09 08:23:03;;;;;;;70.45;50.42;;;;;;;;;;5126362;27;20053;-76
2022/03/09 08:25:30;;;;;;;71.10;55.10;;;;;;;;;;5116751;27;20024;-75
2022/03/09 08:27:57;;;;;;;69.28;52.85;;;;;;;;;;5119433;27;20377;-76
2022/03/09 08:30:24;;;;;;;74.40;52.20;;;;;;;;;;5123831;27;20039;-76
2022/03/09 08:32:50;;;;;;;71.80;51.10;;;;;;;;;;5127717;27;20573;-76
2022/03/09 08:35:16;;;;;;;74.30;57.60;;;;;;;;;;5124022;27;20070;-75
2022/03/09 08:37:42;;;;;;;70.28;52.42;;;;;;;;;;5120278;27;20033;-75
2022/03/09 08:40:09;;;;;;;67.10;51.65;;;;;;;;;;5118503;27;20062;-75
2022/03/09 08:42:35;;;;;;;68.60;52.78;;;;;;;;;;5122535;27;20022;-76
2022/03/09 08:45:01;;;;;;;66.55;54.80;;;;;;;;;;5124958;27;20018;-76
2022/03/09 08:47:28;;;;;;;70.53;54.13;;;;;;;;;;5130631;27;20031;-77
2022/03/09 08:49:54;;;;;;;68.97;54.85;;;;;;;;;;5129722;27;20805;-77
2022/03/09 08:52:21;;;;;;;76.68;54.05;;;;;;;;;;5123891;27;20441;-76
2022/03/09 08:54:47;;;;;;;84.45;59.22;;;;;;;;;;5122882;27;20118;-75
2022/03/09 08:57:14;;;;;;;71.03;51.63;;;;;;;;;;5121802;27;20034;-75
2022/03/09 08:59:40;;;;;;;70.88;53.88;;;;;;;;;;5125956;27;20020;-76
2022/03/09 09:02:10;;;;;;;70.65;49.17;;;;;;;;;;5120284;27;20466;-78
2022/03/09 09:04:37;;;;;;;72.82;54.85;;;;;;;;;;5124203;27;20015;-77
2022/03/09 09:07:06;;;;;;;74.68;53.95;;;;;;;;;;5128581;27;20087;-76
2022/03/09 09:09:35;;;;;;;64.50;50.08;;;;;;;;;;5124694;27;20099;-76
2022/03/09 09:12:02;;;;;;;68.25;48.88;;;;;;;;;;5128711;27;20034;-75
2022/03/09 09:14:28;;;;;;;73.63;52.35;;;;;;;;;;5125496;27;20068;-76
2022/03/09 09:16:55;;;;;;;64.43;47.85;;;;;;;;;;5126766;27;20039;-75
2022/03/09 09:19:22;;;;;;;69.10;47.70;;;;;;;;;;5123737;27;20123;-75
2022/03/09 09:21:48;;;;;;;64.00;45.95;;;;;;;;;;5125048;27;20471;-74
2022/03/09 09:24:15;;;;;;;65.28;48.22;;;;;;;;;;5122879;27;20027;-76
2022/03/09 09:26:41;;;;;;;64.63;50.30;;;;;;;;;;5103833;28;20028;-76
2022/03/09 09:29:09;;;;;;;67.28;48.80;;;;;;;;;;5122303;27;20052;-76
2022/03/09 09:31:35;;;;;;;71.35;50.33;;;;;;;;;;5123513;27;20028;-76
2022/03/09 09:34:02;;;;;;;69.05;50.13;;;;;;;;;;5116364;28;20173;-76
2022/03/09 09:36:29;;;;;;;62.42;48.80;;;;;;;;;;5122558;27;20023;-77
2022/03/09 09:38:55;;;;;;;67.50;49.30;;;;;;;;;;5122326;28;20031;-76
2022/03/09 09:41:25;;;;;;;68.75;51.33;;;;;;;;;;5108823;27;20032;-76
2022/03/09 09:43:52;;;;;;;59.97;45.35;;;;;;;;;;5123829;27;20092;-76
2022/03/09 09:46:18;;;;;;;59.78;45.47;;;;;;;;;;5131520;27;20035;-75
2022/03/09 09:48:45;;;;;;;54.75;40.90;;;;;;;;;;5127093;27;20034;-77
2022/03/09 09:51:12;;;;;;;59.40;42.45;;;;;;;;;;5134791;27;20027;-76
2022/03/09 09:53:42;;;;;;;68.13;47.85;;;;;;;;;;5123905;27;20046;-76
2022/03/09 09:56:09;;;;;;;69.82;47.50;;;;;;;;;;5133795;27;20028;-75
2022/03/09 09:58:37;;;;;;;67.78;49.25;;;;;;;;;;5131422;27;20409;-76
2022/03/09 10:01:03;;;;;;;72.05;49.70;;;;;;;;;;5132425;27;20156;-75
2022/03/09 10:03:30;;;;;;;69.18;48.53;;;;;;;;;;5133507;27;20024;-74
2022/03/09 10:05:56;;;;;;;69.70;50.00;;;;;;;;;;5129592;27;20365;-74
2022/03/09 10:08:22;;;;;;;58.85;45.72;;;;;;;;;;5124936;27;20105;-75
2022/03/09 10:10:59;;;;;;;65.57;47.78;;;;;;;;;;5128115;27;20056;-76
2022/03/09 10:13:28;;;;;;;66.38;47.58;;;;;;;;;;5126954;27;20047;-75
2022/03/09 10:16:09;;;;;;;68.40;49.45;;;;;;;;;;5130840;27;20084;-75
2022/03/09 10:18:35;;;;;;;62.90;47.95;;;;;;;;;;5130018;27;20023;-75
2022/03/09 10:21:12;;;;;;;73.75;51.80;;;;;;;;;;5105368;27;20378;-75
2022/03/09 10:23:54;;;;;;;73.22;51.35;;;;;;;;;;5128186;27;20019;-77
2022/03/09 10:26:22;;;;;;;74.53;52.50;;;;;;;;;;5122969;27;20027;-76
2022/03/09 10:29:03;;;;;;;65.75;48.85;;;;;;;;;;5127762;27;20023;-76
2022/03/09 10:31:36;;;;;;;70.63;50.72;;;;;;;;;;5127429;27;20386;-77
2022/03/09 10:34:10;;;;;;;71.55;51.35;;;;;;;;;;5131113;27;20114;-75
2022/03/09 10:36:37;;;;;;;76.40;50.40;;;;;;;;;;5126330;27;20429;-74
2022/03/09 10:39:10;;;;;;;74.97;52.50;;;;;;;;;;5132398;27;20102;-76
2022/03/09 10:41:36;;;;;;;72.45;52.33;;;;;;;;;;5123584;27;20037;-75
2022/03/09 10:44:03;;;;;;;71.03;51.33;;;;;;;;;;5129914;27;20023;-77
2022/03/09 10:46:40;;;;;;;63.88;48.28;;;;;;;;;;5128740;27;20031;-76
2022/03/09 10:49:08;;;;;;;71.85;53.75;;;;;;;;;;5127386;27;20068;-74
2022/03/09 10:51:40;;;;;;;71.55;50.13;;;;;;;;;;5123733;27;20295;-74
2022/03/09 10:54:08;;;;;;;74.00;50.90;;;;;;;;;;5130979;27;20027;-75
2022/03/09 10:56:35;;;;;;;72.07;51.35;;;;;;;;;;5138717;27;20030;-75
2022/03/09 10:59:09;;;;;;;74.78;53.72;;;;;;;;;;5132638;27;20033;-75
2022/03/09 11:01:36;;;;;;;68.60;47.47;;;;;;;;;;5125476;27;20019;-76
2022/03/09 11:04:16;;;;;;;67.70;49.90;;;;;;;;;;5129456;27;20480;-76
2022/03/09 11:06:46;;;;;;;71.03;51.20;;;;;;;;;;5127397;27;20027;-75
2022/03/09 11:09:16;;;;;;;77.03;51.55;;;;;;;;;;5123533;27;20020;-75
2022/03/09 11:11:43;;;;;;;83.63;55.10;;;;;;;;;;5125370;27;20685;-76
2022/03/09 11:14:10;;;;;;;79.93;56.80;;;;;;;;;;5123875;27;20088;-75
2022/03/09 11:16:37;;;;;;;77.80;55.83;;;;;;;;;;5120409;27;20024;-74
2022/03/09 11:19:03;;;;;;;80.95;58.03;;;;;;;;;;5122450;27;20027;-75
2022/03/09 11:21:30;;;;;;;85.88;59.42;;;;;;;;;;5123746;27;20084;-75
2022/03/09 11:23:57;;;;;;;87.90;63.30;;;;;;;;;;5130752;27;20023;-76
2022/03/09 11:26:30;;;;;;;96.20;67.65;;;;;;;;;;5131355;27;20440;-75
2022/03/09 11:29:15;;;;;;;93.15;64.63;;;;;;;;;;5131173;27;20076;-75
2022/03/09 11:31:42;;;;;;;93.70;63.58;;;;;;;;;;5121961;27;20091;-76
2022/03/09 11:34:28;;;;;;;94.28;64.85;;;;;;;;;;5123148;27;20031;-76
2022/03/09 11:37:03;;;;;;;94.18;64.20;;;;;;;;;;5128290;27;20031;-75
2022/03/09 11:39:29;;;;;;;102.88;78.95;;;;;;;;;;5129391;27;20019;-77
2022/03/09 11:42:19;;;;;;;107.28;75.13;;;;;;;;;;5125689;27;20028;-76
2022/03/09 11:44:45;;;;;;;104.65;70.60;;;;;;;;;;5119657;27;20118;-76
2022/03/09 11:47:11;;;;;;;103.40;70.80;;;;;;;;;;5133421;27;20068;-77
2022/03/09 11:49:49;;;;;;;104.75;77.60;;;;;;;;;;5128889;27;20027;-75
2022/03/09 11:52:15;;;;;;;121.38;84.15;;;;;;;;;;5130610;27;20467;-76
2022/03/09 11:54:45;;;;;;;119.18;80.72;;;;;;;;;;5127535;27;20690;-75
2022/03/09 11:57:12;;;;;;;114.47;75.85;;;;;;;;;;5106225;27;20039;-75
2022/03/09 11:59:39;;;;;;;121.68;81.55;;;;;;;;;;5129912;27;20076;-76
2022/03/09 12:02:11;;;;;;;120.05;77.85;;;;;;;;;;5129260;27;20356;-76
2022/03/09 12:04:40;;;;;;;119.50;84.93;;;;;;;;;;5125478;27;20034;-76
2022/03/09 12:07:07;;;;;;;107.95;73.97;;;;;;;;;;5127348;27;20144;-76
2022/03/09 12:09:52;;;;;;;110.07;74.15;;;;;;;;;;5127747;27;20027;-78
2022/03/09 12:12:18;;;;;;;107.55;72.28;;;;;;;;;;5125951;27;20023;-76
2022/03/09 12:15:03;;;;;;;117.60;83.32;;;;;;;;;;5127320;27;20035;-76
2022/03/09 12:17:29;;;;;;;105.55;73.75;;;;;;;;;;5134328;27;20344;-76
2022/03/09 12:20:14;;;;;;;111.85;75.30;;;;;;;;;;5126461;27;20029;-75
2022/03/09 12:23:01;;;;;;;109.47;74.47;;;;;;;;;;5129460;27;20481;-75
2022/03/09 12:25:39;;;;;;;100.70;70.85;;;;;;;;;;5110752;27;20038;-75
2022/03/09 12:28:24;;;;;;;103.57;72.90;;;;;;;;;;5125711;27;20034;-76
2022/03/09 12:30:56;;;;;;;110.93;73.93;;;;;;;;;;5128570;27;20034;-77
2022/03/09 12:33:27;;;;;;;114.85;78.72;;;;;;;;;;5130608;27;20024;-76
2022/03/09 12:35:54;;;;;;;108.68;72.72;;;;;;;;;;5126783;27;20027;-74
2022/03/09 12:38:22;;;;;;;106.07;72.82;;;;;;;;;;5124181;27;20027;-77
2022/03/09 12:40:48;;;;;;;102.85;78.30;;;;;;;;;;5110895;27;20077;-76
2022/03/09 12:43:14;;;;;;;108.47;77.45;;;;;;;;;;5130095;27;20019;-76
2022/03/09 12:45:51;;;;;;;113.43;75.97;;;;;;;;;;5129693;27;20031;-75
2022/03/09 12:48:18;;;;;;;105.15;75.72;;;;;;;;;;5128052;27;20068;-75
2022/03/09 12:50:45;;;;;;;110.90;72.63;;;;;;;;;;5131342;27;20030;-76
2022/03/09 12:53:12;;;;;;;123.43;82.13;;;;;;;;;;5127693;27;20030;-76
2022/03/09 12:55:39;;;;;;;135.45;87.00;;;;;;;;;;5125685;27;20023;-76
2022/03/09 12:58:05;;;;;;;116.35;78.50;;;;;;;;;;5128470;27;20026;-76
2022/03/09 13:00:34;;;;;;;133.77;94.18;;;;;;;;;;5127863;27;20019;-75
2022/03/09 13:03:01;;;;;;;132.68;88.80;;;;;;;;;;5119067;27;20072;-76
2022/03/09 13:05:29;;;;;;;129.32;84.85;;;;;;;;;;5124595;27;20019;-76
2022/03/09 13:07:55;;;;;;;129.60;86.85;;;;;;;;;;5127239;27;20493;-76
2022/03/09 13:10:23;;;;;;;134.85;87.88;;;;;;;;;;5121415;27;20045;-76
2022/03/09 13:12:51;;;;;;;134.75;90.60;;;;;;;;;;5123688;27;20046;-77
2022/03/09 13:15:19;;;;;;;132.65;89.47;;;;;;;;;;5124093;27;20059;-75
2022/03/09 13:17:48;;;;;;;135.07;87.70;;;;;;;;;;5122960;27;21336;-76
2022/03/09 13:20:15;;;;;;;133.30;85.22;;;;;;;;;;5120278;28;20031;-77
2022/03/09 13:22:43;;;;;;;136.15;86.82;;;;;;;;;;5126444;28;20450;-75
2022/03/09 13:25:09;;;;;;;130.95;83.10;;;;;;;;;;5125617;28;20027;-76
2022/03/09 13:27:36;;;;;;;134.30;87.10;;;;;;;;;;5124175;28;20373;-77
2022/03/09 13:30:13;;;;;;;134.10;85.53;;;;;;;;;;5128849;28;20026;-76
2022/03/09 13:32:39;;;;;;;128.60;84.57;;;;;;;;;;5129801;28;20030;-76
2022/03/09 13:35:05;;;;;;;134.30;88.82;;;;;;;;;;5130059;28;20031;-76
2022/03/09 13:37:36;;;;;;;143.60;94.28;;;;;;;;;;5129980;28;20023;-76
2022/03/09 13:40:04;;;;;;;155.50;104.93;;;;;;;;;;5131595;28;20027;-77
2022/03/09 13:42:34;;;;;;;138.43;88.35;;;;;;;;;;5130796;27;20027;-75
2022/03/09 13:45:01;;;;;;;138.52;96.63;;;;;;;;;;5133175;28;20030;-77
2022/03/09 13:47:28;;;;;;;155.15;105.88;;;;;;;;;;5132484;28;20018;-76
2022/03/09 13:49:54;;;;;;;154.05;98.45;;;;;;;;;;5123715;28;20119;-76
2022/03/09 13:52:24;;;;;;;142.68;97.05;;;;;;;;;;5113536;28;20123;-75
2022/03/09 13:54:51;;;;;;;137.43;88.20;;;;;;;;;;5131295;28;20035;-76
2022/03/09 13:57:47;;;;;;;147.27;93.95;;;;;;;;;;5130396;28;20045;-76
2022/03/09 14:00:22;;;;;;;145.65;90.93;;;;;;;;;;5107487;28;20047;-76
2022/03/09 14:02:49;;;;;;;138.35;91.88;;;;;;;;;;5133285;28;20081;-75
2022/03/09 14:05:31;;;;;;;132.82;85.30;;;;;;;;;;5132858;28;20423;-75
2022/03/09 14:07:58;;;;;;;131.27;81.57;;;;;;;;;;5126447;28;20110;-74
2022/03/09 14:10:26;;;;;;;134.80;90.47;;;;;;;;;;5127016;28;20031;-75
2022/03/09 14:12:53;;;;;;;139.85;89.03;;;;;;;;;;5126509;28;20122;-76
2022/03/09 14:15:19;;;;;;;134.50;86.93;;;;;;;;;;5126345;27;20027;-76
2022/03/09 14:17:45;;;;;;;138.93;87.97;;;;;;;;;;5125836;27;20055;-77
2022/03/09 14:20:13;;;;;;;134.85;87.22;;;;;;;;;;5123155;28;20098;-76
2022/03/09 14:22:43;;;;;;;138.35;89.55;;;;;;;;;;5133971;27;20016;-76
2022/03/09 14:25:10;;;;;;;147.27;92.53;;;;;;;;;;5128355;27;20105;-75
2022/03/09 14:27:36;;;;;;;134.90;86.88;;;;;;;;;;5130012;27;20027;-76
2022/03/09 14:30:06;;;;;;;123.78;83.45;;;;;;;;;;5135750;27;20378;-75
2022/03/09 14:32:33;;;;;;;118.20;77.10;;;;;;;;;;5133453;27;20377;-75
2022/03/09 14:34:59;;;;;;;128.45;84.78;;;;;;;;;;5137342;27;20034;-76
2022/03/09 14:37:27;;;;;;;123.40;76.32;;;;;;;;;;5118010;27;20106;-76
2022/03/09 14:39:53;;;;;;;126.95;82.72;;;;;;;;;;5126062;27;20024;-76
2022/03/09 14:42:20;;;;;;;125.32;79.63;;;;;;;;;;5139484;27;20019;-76
2022/03/09 14:44:46;;;;;;;126.40;81.97;;;;;;;;;;5124953;27;20027;-76
2022/03/09 14:47:12;;;;;;;126.20;79.57;;;;;;;;;;5136022;27;20400;-75
2022/03/09 14:49:38;;;;;;;123.45;80.43;;;;;;;;;;5109819;28;20027;-75
2022/03/09 14:52:08;;;;;;;126.22;80.05;;;;;;;;;;5112710;28;20039;-75
2022/03/09 14:54:35;;;;;;;122.82;78.80;;;;;;;;;;5116485;27;20451;-75